Time;durP1;ratioP1;P1;durP2;ratioP2;P2;SDS_P1;SDS_P2;PMS_P1;PMS_P2;Temp;Humidity;BMP_temperature;BMP_pressure;BME280_temperature;BME280_humidity;BME280_pressure;Samples;Min_cycle;Max_cycle;Signal;HPM_P1;HPM_P2
2022/12/14 00:02:18;;;;;;;27.10;21.13;;;-2.00;99.90;;;;;;5050553;28;20381;-69
2022/12/14 00:04:44;;;;;;;30.23;22.57;;;-2.00;99.90;;;;;;5049794;28;20401;-68
2022/12/14 00:07:09;;;;;;;30.13;22.40;;;-1.70;99.90;;;;;;5050390;28;20386;-69
2022/12/14 00:09:35;;;;;;;28.43;21.13;;;-1.70;99.90;;;;;;5050432;28;20392;-69
2022/12/14 00:12:00;;;;;;;27.00;20.87;;;-1.60;99.90;;;;;;5044801;28;21049;-70
2022/12/14 00:14:26;;;;;;;30.63;20.08;;;-1.70;99.90;;;;;;5046119;28;20392;-69
2022/12/14 00:16:51;;;;;;;28.57;20.50;;;-1.60;99.90;;;;;;5035732;28;20382;-69
2022/12/14 00:19:17;;;;;;;29.10;20.30;;;-1.60;99.90;;;;;;5041494;28;20386;-69
2022/12/14 00:21:42;;;;;;;29.48;21.42;;;-1.60;99.90;;;;;;5037249;28;20389;-68
2022/12/14 00:24:09;;;;;;;28.27;19.90;;;-1.60;99.90;;;;;;5045641;28;20401;-70
2022/12/14 00:26:34;;;;;;;27.98;21.38;;;-1.60;99.90;;;;;;5045126;28;20396;-69
2022/12/14 00:29:01;;;;;;;28.75;21.38;;;-1.50;99.90;;;;;;5049040;28;20374;-69
2022/12/14 00:31:26;;;;;;;26.17;20.57;;;-1.60;99.90;;;;;;5050194;28;20385;-69
2022/12/14 00:33:52;;;;;;;28.02;21.50;;;-1.50;99.90;;;;;;5049287;28;20747;-70
2022/12/14 00:36:18;;;;;;;28.60;21.02;;;-1.50;99.90;;;;;;5032179;28;20451;-70
2022/12/14 00:38:44;;;;;;;27.27;20.92;;;-1.50;99.90;;;;;;5049981;28;20389;-70
2022/12/14 00:41:10;;;;;;;27.83;20.35;;;-1.50;99.90;;;;;;5050114;28;20379;-69
2022/12/14 00:43:36;;;;;;;24.60;20.30;;;-1.50;99.90;;;;;;5049236;28;20381;-69
2022/12/14 00:46:02;;;;;;;28.60;22.13;;;-1.60;99.90;;;;;;5049898;28;20852;-69
2022/12/14 00:48:27;;;;;;;26.87;21.30;;;-1.50;99.90;;;;;;5049903;28;20489;-69
2022/12/14 00:50:54;;;;;;;27.90;21.00;;;-1.20;99.90;;;;;;5050028;28;20392;-69
2022/12/14 00:53:21;;;;;;;26.52;20.15;;;-1.30;99.90;;;;;;5049498;28;20947;-69
2022/12/14 00:55:48;;;;;;;26.08;19.50;;;-1.30;99.90;;;;;;5049726;28;20389;-69
2022/12/14 00:58:17;;;;;;;25.27;19.83;;;-1.30;99.90;;;;;;5049838;28;20474;-69
2022/12/14 01:00:46;;;;;;;27.98;21.83;;;-1.30;99.90;;;;;;5050216;28;20910;-70
2022/12/14 01:03:11;;;;;;;26.20;20.27;;;-1.30;99.90;;;;;;5049416;28;20519;-69
2022/12/14 01:05:38;;;;;;;25.75;20.13;;;-1.40;99.90;;;;;;5050355;28;20497;-69
2022/12/14 01:08:04;;;;;;;25.35;19.98;;;-1.20;99.90;;;;;;5035918;28;20466;-70
2022/12/14 01:10:30;;;;;;;25.65;20.52;;;-1.30;99.90;;;;;;5053678;28;20448;-69
2022/12/14 01:12:55;;;;;;;25.42;18.92;;;-1.30;99.90;;;;;;5053088;28;20477;-69
2022/12/14 01:15:21;;;;;;;24.50;19.30;;;-1.30;99.90;;;;;;5053899;28;20381;-69
2022/12/14 01:17:46;;;;;;;27.50;20.75;;;-1.30;99.90;;;;;;5053659;28;20389;-69
2022/12/14 01:20:12;;;;;;;25.55;18.10;;;-1.20;99.90;;;;;;5035827;28;20385;-69
2022/12/14 01:22:38;;;;;;;24.35;18.27;;;-1.30;99.90;;;;;;5052920;28;20794;-69
2022/12/14 01:25:04;;;;;;;24.00;18.30;;;-1.30;99.90;;;;;;5053494;28;20401;-69
2022/12/14 01:27:30;;;;;;;24.63;18.63;;;-1.20;99.90;;;;;;5053568;28;20971;-69
2022/12/14 01:29:56;;;;;;;24.60;19.70;;;-1.20;99.90;;;;;;5053509;28;20415;-69
2022/12/14 01:32:21;;;;;;;23.92;19.10;;;-1.30;99.90;;;;;;5053569;28;20389;-69
2022/12/14 01:34:48;;;;;;;25.75;19.77;;;-1.30;99.90;;;;;;5052661;28;20444;-70
2022/12/14 01:37:13;;;;;;;26.73;18.90;;;-1.30;99.90;;;;;;5053327;28;20381;-69
2022/12/14 01:39:39;;;;;;;27.05;19.10;;;-1.30;99.90;;;;;;5053182;28;20941;-69
2022/12/14 01:42:10;;;;;;;25.60;19.60;;;-1.20;99.90;;;;;;5053434;28;20447;-69
2022/12/14 01:44:39;;;;;;;24.45;18.58;;;-1.10;99.90;;;;;;5052475;28;20439;-69
2022/12/14 01:47:07;;;;;;;23.63;19.05;;;-1.20;99.90;;;;;;5053163;28;20438;-70
2022/12/14 01:49:40;;;;;;;26.13;20.05;;;-1.10;99.90;;;;;;5053076;28;20380;-69
2022/12/14 01:52:08;;;;;;;24.98;19.80;;;-1.00;99.90;;;;;;5052127;28;20392;-69
2022/12/14 01:54:44;;;;;;;24.08;18.85;;;-1.00;99.90;;;;;;5052316;28;20385;-70
2022/12/14 01:57:12;;;;;;;23.90;18.67;;;-0.90;99.90;;;;;;5056452;22;20439;-68
2022/12/14 01:59:41;;;;;;;24.45;19.10;;;-0.90;99.90;;;;;;5013158;28;20386;-68
2022/12/14 02:02:09;;;;;;;23.75;17.80;;;-0.80;99.90;;;;;;5013369;28;20787;-68
2022/12/14 02:04:38;;;;;;;22.17;17.90;;;-0.80;99.90;;;;;;5012139;28;20400;-68
2022/12/14 02:07:03;;;;;;;24.10;17.92;;;-0.80;99.90;;;;;;5004733;28;20402;-68
2022/12/14 02:09:32;;;;;;;22.50;16.73;;;-0.70;99.90;;;;;;5002999;28;20751;-68
2022/12/14 02:12:27;;;;;;;21.90;17.88;;;-0.80;99.90;;;;;;5012985;28;20471;-69
2022/12/14 02:14:54;;;;;;;21.65;18.02;;;-0.80;99.90;;;;;;4990479;28;20495;-68
2022/12/14 02:17:19;;;;;;;22.50;17.73;;;-0.80;99.90;;;;;;5012565;28;20388;-68
2022/12/14 02:19:48;;;;;;;24.25;19.90;;;-0.90;99.90;;;;;;5012862;28;20393;-68
2022/12/14 02:22:37;;;;;;;27.00;20.40;;;-1.10;99.90;;;;;;5012991;28;20864;-68
2022/12/14 02:25:10;;;;;;;29.30;22.20;;;-1.10;99.90;;;;;;5012623;28;20404;-69
2022/12/14 02:28:00;;;;;;;29.02;22.95;;;-1.10;99.90;;;;;;5012434;28;20389;-68
2022/12/14 02:30:27;;;;;;;26.60;21.52;;;-1.20;99.90;;;;;;5012514;28;20408;-68
2022/12/14 02:32:55;;;;;;;30.05;22.52;;;-1.30;99.90;;;;;;5011840;28;20392;-68
2022/12/14 02:35:53;;;;;;;31.45;23.30;;;-1.30;99.90;;;;;;5012393;28;20902;-68
2022/12/14 02:38:30;;;;;;;28.63;21.90;;;-1.40;99.90;;;;;;5012371;28;20498;-68
2022/12/14 02:41:20;;;;;;;29.70;21.83;;;-1.30;99.90;;;;;;5012319;28;20388;-68
2022/12/14 02:44:11;;;;;;;33.53;24.90;;;-1.50;99.90;;;;;;5011711;28;21023;-68
2022/12/14 02:47:01;;;;;;;30.55;22.52;;;-1.40;99.90;;;;;;5004020;28;20413;-68
2022/12/14 02:50:07;;;;;;;29.65;23.00;;;-1.30;99.90;;;;;;5012141;28;20381;-67
2022/12/14 02:52:52;;;;;;;30.00;22.98;;;-1.40;99.90;;;;;;5010492;28;20383;-68
2022/12/14 02:55:30;;;;;;;29.90;23.27;;;-1.40;99.90;;;;;;5011958;28;20384;-68
2022/12/14 02:58:19;;;;;;;31.30;23.08;;;-1.30;99.90;;;;;;5011913;28;20435;-67
2022/12/14 03:00:46;;;;;;;30.87;23.90;;;-1.30;99.90;;;;;;5012018;28;20412;-68
2022/12/14 03:03:12;;;;;;;31.67;24.63;;;-1.50;99.90;;;;;;5011382;28;20367;-68
2022/12/14 03:05:38;;;;;;;32.53;23.80;;;-1.50;99.90;;;;;;5011796;28;20423;-68
2022/12/14 03:08:13;;;;;;;32.03;23.40;;;-1.40;99.90;;;;;;5011660;28;20439;-68
2022/12/14 03:10:56;;;;;;;31.90;23.38;;;-1.30;99.90;;;;;;4992936;28;20394;-68
2022/12/14 03:13:37;;;;;;;31.02;23.23;;;-1.40;99.90;;;;;;4991588;28;20746;-68
2022/12/14 03:16:06;;;;;;;31.63;24.00;;;-1.40;99.90;;;;;;4992068;28;20393;-68
2022/12/14 03:18:38;;;;;;;31.77;23.02;;;-1.50;99.90;;;;;;4992076;28;20873;-68
2022/12/14 03:21:06;;;;;;;32.25;24.65;;;-1.40;99.90;;;;;;4992036;28;20391;-68
2022/12/14 03:23:37;;;;;;;32.28;23.70;;;-1.30;99.90;;;;;;4991393;28;20410;-68
2022/12/14 03:26:12;;;;;;;27.23;22.38;;;-1.30;99.90;;;;;;4991874;28;20417;-68
2022/12/14 03:28:41;;;;;;;30.70;24.00;;;-1.20;99.90;;;;;;4991247;28;20406;-68
2022/12/14 03:31:20;;;;;;;32.78;25.25;;;-1.00;99.90;;;;;;4992091;28;20824;-68
2022/12/14 03:33:48;;;;;;;31.00;22.42;;;-1.10;99.90;;;;;;4991211;28;20434;-68
2022/12/14 03:36:43;;;;;;;29.30;22.00;;;-1.00;99.90;;;;;;4974112;28;20406;-68
2022/12/14 03:39:13;;;;;;;35.78;25.10;;;-1.10;99.90;;;;;;4985847;28;20869;-68
2022/12/14 03:41:53;;;;;;;32.05;24.65;;;-1.10;99.90;;;;;;4991788;28;20401;-69
2022/12/14 03:44:30;;;;;;;32.92;24.10;;;-1.10;99.90;;;;;;4990840;28;20491;-68
2022/12/14 03:47:33;;;;;;;33.97;25.77;;;-1.20;99.90;;;;;;4991613;28;20386;-68
2022/12/14 03:50:07;;;;;;;31.10;23.75;;;-1.00;99.90;;;;;;4991584;28;20497;-68
2022/12/14 03:52:43;;;;;;;29.52;22.83;;;-1.10;99.90;;;;;;4990983;28;20501;-68
2022/12/14 03:55:08;;;;;;;31.60;22.80;;;-1.00;99.90;;;;;;4991378;28;20394;-68
2022/12/14 03:58:11;;;;;;;32.50;22.70;;;-0.90;99.90;;;;;;4991258;28;20395;-68
2022/12/14 04:00:50;;;;;;;26.98;20.88;;;-1.00;99.90;;;;;;4991327;28;20401;-68
2022/12/14 04:03:36;;;;;;;27.08;21.38;;;-1.10;99.90;;;;;;4990714;28;20570;-68
2022/12/14 04:06:26;;;;;;;27.77;21.50;;;-1.20;99.90;;;;;;4991140;28;20718;-69
2022/12/14 04:09:01;;;;;;;27.27;21.70;;;-1.20;99.90;;;;;;4995642;28;20901;-68
2022/12/14 04:20:29;;;;;;;28.92;21.65;;;-0.90;99.90;;;;;;5010615;28;20431;-68
2022/12/14 04:23:01;;;;;;;26.67;21.20;;;-0.90;99.90;;;;;;5009853;28;20435;-68
2022/12/14 04:31:07;;;;;;;26.65;20.27;;;-0.90;99.90;;;;;;5010611;28;20388;-68
2022/12/14 04:33:47;;;;;;;28.63;20.20;;;-0.80;99.90;;;;;;5010078;28;20449;-68
2022/12/14 04:36:54;;;;;;;25.98;19.38;;;-0.80;99.90;;;;;;5010835;28;20463;-68
2022/12/14 04:39:29;;;;;;;28.33;21.10;;;-0.80;99.90;;;;;;4950219;28;20398;-68
2022/12/14 04:41:58;;;;;;;24.40;20.60;;;-0.70;99.90;;;;;;5001560;28;20538;-68
2022/12/14 04:44:34;;;;;;;27.17;19.75;;;-0.70;99.90;;;;;;5010063;28;20494;-68
2022/12/14 04:47:04;;;;;;;25.55;20.90;;;-0.80;99.90;;;;;;5010646;28;20385;-68
2022/12/14 04:50:10;;;;;;;30.25;21.63;;;-0.70;99.90;;;;;;5011004;28;20388;-68
2022/12/14 04:52:42;;;;;;;26.33;21.67;;;-0.70;99.90;;;;;;4995167;28;20487;-68
2022/12/14 04:55:16;;;;;;;27.13;21.08;;;-0.70;99.90;;;;;;4992929;28;20902;-68
2022/12/14 04:57:46;;;;;;;26.40;20.90;;;-0.70;99.90;;;;;;5010503;28;20401;-68
2022/12/14 05:00:13;;;;;;;27.17;21.20;;;-0.70;99.90;;;;;;5010598;28;20791;-68
2022/12/14 05:03:20;;;;;;;28.38;21.90;;;-0.80;99.90;;;;;;5009859;28;20389;-68
2022/12/14 05:06:17;;;;;;;25.25;20.52;;;-0.80;99.90;;;;;;4997381;28;20413;-69
2022/12/14 05:08:48;;;;;;;27.65;20.33;;;-0.60;99.90;;;;;;4976451;28;20456;-68
2022/12/14 05:11:47;;;;;;;26.90;20.85;;;-0.60;99.90;;;;;;4990911;28;20391;-68
2022/12/14 05:14:23;;;;;;;28.80;20.55;;;-0.60;99.90;;;;;;4978547;28;20490;-68
2022/12/14 05:16:49;;;;;;;26.25;20.90;;;-0.50;99.90;;;;;;4990799;28;20424;-68
2022/12/14 05:19:15;;;;;;;25.27;19.67;;;-0.50;99.90;;;;;;4991056;28;20422;-68
2022/12/14 05:21:46;;;;;;;25.33;19.67;;;-0.40;99.90;;;;;;4990889;28;20789;-68
2022/12/14 05:24:12;;;;;;;22.75;18.40;;;-0.20;99.90;;;;;;4989945;28;20433;-68
2022/12/14 05:26:37;;;;;;;23.93;19.00;;;-0.30;99.90;;;;;;4990730;28;20470;-68
2022/12/14 05:29:03;;;;;;;22.37;18.93;;;-0.30;99.90;;;;;;4990926;28;20398;-68
2022/12/14 05:31:29;;;;;;;23.10;19.55;;;-0.30;99.90;;;;;;4990819;28;20449;-68
2022/12/14 05:33:54;;;;;;;25.67;19.48;;;-0.40;99.90;;;;;;4990094;28;20383;-68
2022/12/14 05:36:20;;;;;;;28.92;21.45;;;-0.40;99.90;;;;;;4990604;28;20386;-68
2022/12/14 05:38:46;;;;;;;27.10;21.25;;;-0.40;99.90;;;;;;4990761;28;20389;-68
2022/12/14 05:41:11;;;;;;;28.75;22.08;;;-0.70;99.90;;;;;;4990780;28;20378;-68
2022/12/14 05:43:37;;;;;;;26.90;21.93;;;-0.50;99.90;;;;;;4990092;28;20389;-68
2022/12/14 05:46:03;;;;;;;29.60;21.43;;;-0.70;99.90;;;;;;4990590;28;20564;-68
2022/12/14 05:48:29;;;;;;;28.65;21.58;;;-0.60;99.90;;;;;;4990975;28;20372;-68
2022/12/14 05:51:02;;;;;;;27.58;21.33;;;-0.60;99.90;;;;;;4990740;28;20387;-68
2022/12/14 05:53:28;;;;;;;31.77;21.58;;;-0.70;99.90;;;;;;4991748;28;20397;-68
2022/12/14 05:55:53;;;;;;;29.60;22.30;;;-0.80;99.90;;;;;;4994046;28;20783;-69
2022/12/14 05:58:18;;;;;;;31.37;22.97;;;-0.70;99.90;;;;;;4993905;28;20402;-69
2022/12/14 06:00:44;;;;;;;32.50;23.20;;;-0.80;99.90;;;;;;4993976;28;20441;-69
2022/12/14 06:03:09;;;;;;;34.00;24.30;;;-0.80;99.90;;;;;;4993200;28;20448;-68
2022/12/14 06:05:35;;;;;;;34.83;24.33;;;-0.90;99.90;;;;;;4993947;28;20426;-69
2022/12/14 06:08:01;;;;;;;34.87;25.50;;;-0.80;99.90;;;;;;4993569;28;20869;-68
2022/12/14 06:10:26;;;;;;;31.20;23.27;;;-0.80;99.90;;;;;;5011136;28;20451;-68
2022/12/14 06:12:52;;;;;;;36.97;24.08;;;-0.90;99.90;;;;;;5012573;28;20393;-68
2022/12/14 06:15:17;;;;;;;34.05;23.52;;;-1.00;99.90;;;;;;5013420;28;20389;-69
2022/12/14 06:17:46;;;;;;;34.53;23.55;;;-0.80;99.90;;;;;;5013117;28;20396;-69
2022/12/14 06:20:12;;;;;;;32.85;24.38;;;-0.90;99.90;;;;;;5013210;28;20404;-69
2022/12/14 06:22:38;;;;;;;31.55;23.05;;;-0.70;99.90;;;;;;5012357;28;20871;-68
2022/12/14 06:25:04;;;;;;;34.55;23.05;;;-0.70;99.90;;;;;;5013208;28;20440;-69
2022/12/14 06:27:30;;;;;;;27.77;21.53;;;-0.80;99.90;;;;;;5012992;28;20377;-68
2022/12/14 06:29:55;;;;;;;32.20;22.93;;;-0.90;99.90;;;;;;5013122;28;20396;-68
2022/12/14 06:32:21;;;;;;;28.97;21.60;;;-0.90;99.90;;;;;;5013173;28;20408;-68
2022/12/14 06:34:46;;;;;;;32.03;22.88;;;-0.80;99.90;;;;;;5012317;28;20736;-68
2022/12/14 06:37:12;;;;;;;27.48;21.85;;;-0.90;99.90;;;;;;5012360;28;20473;-67
2022/12/14 06:39:38;;;;;;;31.20;23.33;;;-0.90;99.90;;;;;;5012956;28;20820;-68
2022/12/14 06:42:04;;;;;;;33.33;24.13;;;-0.80;99.90;;;;;;5013142;28;20467;-67
2022/12/14 06:44:29;;;;;;;30.10;22.90;;;-0.90;99.90;;;;;;5011894;28;20396;-67
2022/12/14 06:46:55;;;;;;;30.77;22.92;;;-0.90;99.90;;;;;;5012596;28;20447;-68
2022/12/14 06:49:21;;;;;;;32.27;22.23;;;-0.90;99.90;;;;;;5012754;28;20435;-67
2022/12/14 06:51:46;;;;;;;28.83;21.33;;;-1.00;99.90;;;;;;5012421;28;20412;-67
2022/12/14 06:54:13;;;;;;;32.27;23.10;;;-1.00;99.90;;;;;;5011872;28;20388;-69
2022/12/14 06:56:40;;;;;;;31.73;22.80;;;-1.00;99.90;;;;;;4994719;28;20408;-69
2022/12/14 06:59:07;;;;;;;30.60;22.48;;;-1.00;99.90;;;;;;5012586;28;20384;-68
2022/12/14 07:01:34;;;;;;;27.90;21.67;;;-1.00;99.90;;;;;;5012461;28;20471;-69
2022/12/14 07:04:00;;;;;;;31.53;23.07;;;-0.90;99.90;;;;;;5011581;28;20815;-69
2022/12/14 07:06:30;;;;;;;29.77;22.48;;;-1.00;99.90;;;;;;5012067;28;20377;-68
2022/12/14 07:08:56;;;;;;;31.55;22.35;;;-1.00;99.90;;;;;;5007326;28;20402;-69
2022/12/14 07:11:23;;;;;;;32.60;23.05;;;-0.90;99.90;;;;;;4992933;28;20389;-69
2022/12/14 07:13:48;;;;;;;31.83;23.00;;;-0.90;99.90;;;;;;4991811;28;20394;-69
2022/12/14 07:16:18;;;;;;;30.47;22.97;;;-0.90;99.90;;;;;;4992502;28;20861;-69
2022/12/14 07:18:44;;;;;;;35.70;25.25;;;-0.90;99.90;;;;;;4992346;28;20904;-69
2022/12/14 07:21:11;;;;;;;37.30;26.40;;;-0.90;99.90;;;;;;4992450;28;20402;-69
2022/12/14 07:23:39;;;;;;;35.58;24.13;;;-0.90;99.90;;;;;;4991652;28;20481;-69
2022/12/14 07:26:08;;;;;;;32.13;23.45;;;-0.80;99.90;;;;;;4992256;28;20403;-69
2022/12/14 07:28:37;;;;;;;29.83;20.73;;;-0.90;99.90;;;;;;4992334;28;20391;-69
2022/12/14 07:31:04;;;;;;;27.70;20.97;;;-0.80;99.90;;;;;;4992382;28;20386;-69
2022/12/14 07:33:29;;;;;;;24.83;18.48;;;-0.90;99.90;;;;;;4991367;28;20901;-69
2022/12/14 07:36:07;;;;;;;24.70;18.07;;;-0.80;99.90;;;;;;4992125;28;20391;-69
2022/12/14 07:38:34;;;;;;;26.50;19.00;;;-1.00;99.90;;;;;;4991325;28;20407;-69
2022/12/14 07:41:05;;;;;;;23.38;18.20;;;-1.00;99.90;;;;;;4992032;28;20477;-69
2022/12/14 07:43:30;;;;;;;23.77;18.45;;;-1.00;99.90;;;;;;4971933;28;20388;-69
2022/12/14 07:46:05;;;;;;;21.93;17.23;;;-1.10;99.90;;;;;;4972471;28;20411;-69
2022/12/14 07:48:31;;;;;;;26.33;19.70;;;-1.00;99.90;;;;;;4972463;28;20390;-69
2022/12/14 07:51:09;;;;;;;28.75;21.48;;;-1.00;99.90;;;;;;4972540;28;20419;-69
2022/12/14 07:53:35;;;;;;;29.35;21.25;;;-1.00;99.90;;;;;;4969901;28;20415;-69
2022/12/14 07:56:10;;;;;;;29.85;22.50;;;-1.00;99.90;;;;;;4972373;28;20400;-69
2022/12/14 07:58:36;;;;;;;30.40;22.80;;;-1.00;99.90;;;;;;5017960;22;20798;-68
2022/12/14 08:01:21;;;;;;;30.10;21.55;;;-1.00;99.90;;;;;;5030899;28;20395;-68
2022/12/14 08:03:49;;;;;;;35.65;23.45;;;-1.10;99.90;;;;;;5022772;28;20805;-68
2022/12/14 08:06:17;;;;;;;32.45;23.38;;;-1.00;99.90;;;;;;5029697;28;20421;-67
2022/12/14 08:08:42;;;;;;;30.05;23.30;;;-1.00;99.90;;;;;;5030820;28;20757;-68
2022/12/14 08:11:09;;;;;;;29.50;22.70;;;-0.90;99.90;;;;;;5013197;28;20391;-68
2022/12/14 08:13:37;;;;;;;29.63;22.63;;;-0.90;99.90;;;;;;5030102;28;20887;-68
2022/12/14 08:16:04;;;;;;;29.88;23.05;;;-0.90;99.90;;;;;;5028721;28;20398;-68
2022/12/14 08:18:32;;;;;;;28.25;22.27;;;-0.90;99.90;;;;;;5029385;28;20821;-67
2022/12/14 08:20:57;;;;;;;28.95;22.00;;;-0.90;99.90;;;;;;5030621;28;20383;-68
2022/12/14 08:23:23;;;;;;;30.48;23.10;;;-0.90;99.90;;;;;;5029877;28;20449;-68
2022/12/14 08:25:56;;;;;;;26.73;20.93;;;-0.90;99.90;;;;;;5030658;28;20402;-68
2022/12/14 08:28:22;;;;;;;28.15;21.75;;;-0.90;99.90;;;;;;5030545;28;20387;-68
2022/12/14 08:30:49;;;;;;;30.92;22.67;;;-0.80;99.90;;;;;;5030572;28;20463;-68
2022/12/14 08:33:14;;;;;;;28.20;21.35;;;-0.80;99.90;;;;;;5029781;28;20383;-69
2022/12/14 08:35:40;;;;;;;29.63;22.38;;;-0.80;99.90;;;;;;5012889;28;20486;-68
2022/12/14 08:38:05;;;;;;;27.50;21.52;;;-0.80;99.90;;;;;;5030354;28;20441;-68
2022/12/14 08:40:34;;;;;;;29.23;21.88;;;-0.80;99.90;;;;;;5030596;28;20395;-68
2022/12/14 08:42:59;;;;;;;27.98;22.40;;;-0.70;99.90;;;;;;5029674;28;20390;-68
2022/12/14 08:45:25;;;;;;;28.63;21.98;;;-0.70;99.90;;;;;;5030182;28;20494;-68
2022/12/14 08:47:50;;;;;;;27.83;21.92;;;-0.70;99.90;;;;;;5030227;28;20391;-68
2022/12/14 08:50:16;;;;;;;29.55;22.50;;;-0.60;99.90;;;;;;5030457;28;20746;-68
2022/12/14 08:52:41;;;;;;;30.67;23.50;;;-0.50;99.90;;;;;;5029550;28;20473;-68
2022/12/14 08:55:07;;;;;;;30.07;23.23;;;-0.50;99.90;;;;;;5030440;28;20422;-68
2022/12/14 08:57:33;;;;;;;26.20;21.42;;;-0.40;99.90;;;;;;5030461;28;20473;-68
2022/12/14 08:59:59;;;;;;;28.90;22.65;;;-0.40;99.90;;;;;;5030099;28;20481;-68
2022/12/14 09:02:25;;;;;;;28.70;21.95;;;-0.30;99.90;;;;;;5030013;28;20438;-68
2022/12/14 09:04:51;;;;;;;28.33;22.65;;;-0.40;99.90;;;;;;5012385;28;20463;-69
2022/12/14 09:07:16;;;;;;;29.13;22.00;;;-0.60;99.90;;;;;;5030335;28;20836;-69
2022/12/14 09:09:42;;;;;;;30.38;24.25;;;-0.50;99.90;;;;;;5030141;28;20811;-68
2022/12/14 09:12:10;;;;;;;30.65;24.90;;;-0.40;99.90;;;;;;5030365;28;20429;-68
2022/12/14 09:14:36;;;;;;;31.85;24.40;;;-0.30;99.90;;;;;;5029470;28;20406;-69
2022/12/14 09:17:02;;;;;;;30.98;24.40;;;-0.30;99.90;;;;;;5030208;28;20383;-68
2022/12/14 09:19:28;;;;;;;33.25;26.08;;;-0.30;99.90;;;;;;5030028;28;20391;-69
2022/12/14 09:21:54;;;;;;;31.92;24.88;;;-0.10;99.90;;;;;;5030127;28;20397;-68
2022/12/14 09:24:20;;;;;;;28.03;22.37;;;-0.20;99.90;;;;;;5029300;28;20407;-68
2022/12/14 09:26:46;;;;;;;27.92;22.65;;;-0.20;99.90;;;;;;5030968;28;20478;-69
2022/12/14 09:29:15;;;;;;;30.90;23.17;;;1.90;99.90;;;;;;5015976;28;20850;-68
2022/12/14 09:31:41;;;;;;;29.30;23.50;;;-0.10;99.90;;;;;;5033964;28;20474;-68
2022/12/14 09:34:07;;;;;;;26.52;21.17;;;-0.20;99.90;;;;;;5033022;28;20822;-69
2022/12/14 09:36:32;;;;;;;30.75;22.75;;;-0.20;99.90;;;;;;5033926;28;20383;-69
2022/12/14 09:38:58;;;;;;;30.38;22.73;;;-0.30;99.90;;;;;;5033649;28;20761;-69
2022/12/14 09:41:35;;;;;;;28.07;22.37;;;-0.30;99.90;;;;;;5034000;28;20414;-68
2022/12/14 09:44:19;;;;;;;26.50;20.92;;;-0.20;99.90;;;;;;5015103;28;20391;-68
2022/12/14 09:47:16;;;;;;;26.65;20.48;;;-0.20;99.90;;;;;;5033623;28;20418;-69
2022/12/14 09:50:01;;;;;;;26.35;20.73;;;-0.20;99.90;;;;;;5015805;28;20785;-69
2022/12/14 09:52:42;;;;;;;28.52;22.52;;;-0.20;99.90;;;;;;5033280;28;20410;-69
2022/12/14 09:55:26;;;;;;;29.83;22.58;;;-0.20;99.90;;;;;;5033487;28;20463;-69
2022/12/14 09:57:58;;;;;;;26.85;20.52;;;-0.10;99.90;;;;;;5033303;28;20393;-69
2022/12/14 10:00:29;;;;;;;26.00;20.07;;;-0.10;99.90;;;;;;5033313;28;20429;-69
2022/12/14 10:03:16;;;;;;;24.88;19.90;;;-0.10;99.90;;;;;;5032704;28;20383;-69
2022/12/14 10:06:00;;;;;;;23.52;19.35;;;0.10;99.90;;;;;;5033429;28;20444;-68
2022/12/14 10:08:35;;;;;;;23.10;19.15;;;0.10;99.90;;;;;;5033234;28;20810;-70
2022/12/14 10:11:25;;;;;;;23.73;21.10;;;0.00;99.90;;;;;;5033292;28;20383;-69
2022/12/14 10:14:07;;;;;;;25.58;20.58;;;0.10;99.90;;;;;;5032470;28;20869;-70
2022/12/14 10:16:47;;;;;;;23.35;19.17;;;0.20;99.90;;;;;;5031487;28;20379;-70
2022/12/14 10:19:39;;;;;;;24.00;18.48;;;0.20;99.90;;;;;;5033223;28;20394;-69
2022/12/14 10:22:11;;;;;;;24.13;19.30;;;0.20;99.90;;;;;;5033085;28;20441;-69
2022/12/14 10:24:49;;;;;;;25.02;20.23;;;0.10;99.90;;;;;;5031708;28;20410;-69
2022/12/14 10:27:24;;;;;;;24.70;20.20;;;0.20;99.90;;;;;;5033001;28;20389;-70
2022/12/14 10:29:57;;;;;;;24.83;19.83;;;0.30;99.90;;;;;;5032790;28;20383;-69
2022/12/14 10:32:38;;;;;;;21.63;19.02;;;0.40;99.90;;;;;;5032856;28;20386;-69
2022/12/14 10:35:18;;;;;;;25.00;20.08;;;0.50;99.90;;;;;;5031641;28;20536;-70
2022/12/14 10:37:49;;;;;;;22.15;17.50;;;0.60;99.90;;;;;;5029009;28;20391;-70
2022/12/14 10:40:47;;;;;;;21.23;17.92;;;0.60;99.90;;;;;;5032568;28;20734;-69
2022/12/14 10:43:42;;;;;;;20.65;18.17;;;0.50;99.90;;;;;;5031883;28;20501;-69
2022/12/14 10:46:11;;;;;;;18.55;16.38;;;0.60;99.90;;;;;;5029230;28;20405;-69
2022/12/14 10:49:13;;;;;;;19.00;16.80;;;0.60;99.90;;;;;;5030267;28;20401;-70
2022/12/14 10:51:46;;;;;;;18.20;14.65;;;0.70;99.90;;;;;;5025258;28;20422;-70
2022/12/14 10:54:44;;;;;;;17.08;14.90;;;0.70;99.90;;;;;;5028871;28;21005;-69
2022/12/14 10:57:20;;;;;;;15.52;13.85;;;0.70;99.90;;;;;;5007437;28;20519;-69
2022/12/14 10:59:46;;;;;;;17.17;14.50;;;0.70;99.90;;;;;;5031777;28;20769;-70
2022/12/14 11:02:30;;;;;;;15.02;13.52;;;0.70;99.90;;;;;;5031521;28;21008;-70
2022/12/14 11:05:02;;;;;;;15.63;13.95;;;0.70;99.90;;;;;;5031596;28;20411;-70
2022/12/14 11:07:31;;;;;;;16.52;14.73;;;0.80;99.90;;;;;;5031838;28;20383;-70
2022/12/14 11:10:17;;;;;;;20.58;17.15;;;0.80;99.90;;;;;;5029986;28;20395;-69
2022/12/14 11:12:57;;;;;;;19.17;16.77;;;0.80;99.90;;;;;;5027503;28;20480;-70
2022/12/14 11:15:32;;;;;;;20.10;17.83;;;0.80;99.90;;;;;;5030066;28;20846;-70
2022/12/14 11:18:15;;;;;;;21.83;18.30;;;0.50;99.90;;;;;;5029263;28;20490;-70
2022/12/14 11:21:00;;;;;;;24.05;19.10;;;0.50;99.90;;;;;;5028094;28;20423;-71
2022/12/14 11:23:29;;;;;;;23.10;19.77;;;0.60;99.90;;;;;;5015433;28;20394;-70
2022/12/14 11:26:00;;;;;;;22.08;17.88;;;0.50;99.90;;;;;;5031436;28;20406;-71
2022/12/14 11:28:46;;;;;;;19.73;17.08;;;0.70;99.90;;;;;;5031395;28;20453;-72
2022/12/14 11:31:23;;;;;;;21.95;17.88;;;0.60;99.90;;;;;;5029074;28;20934;-71
2022/12/14 11:33:54;;;;;;;23.50;17.87;;;0.40;99.90;;;;;;5029877;28;20525;-71
2022/12/14 11:36:35;;;;;;;23.48;18.48;;;0.50;99.90;;;;;;5028678;28;20391;-71
2022/12/14 11:39:13;;;;;;;22.55;18.17;;;0.40;99.90;;;;;;5022524;28;20407;-69
2022/12/14 11:41:56;;;;;;;20.38;17.88;;;0.40;99.90;;;;;;5026067;28;20456;-70
2022/12/14 11:44:36;;;;;;;20.77;16.97;;;0.30;99.90;;;;;;5027612;28;20431;-70
2022/12/14 11:47:07;;;;;;;21.73;19.00;;;0.40;99.90;;;;;;5014988;28;20453;-70
2022/12/14 11:49:41;;;;;;;23.63;19.65;;;0.30;99.90;;;;;;5027932;28;20414;-71
2022/12/14 11:52:09;;;;;;;27.25;20.80;;;0.40;99.90;;;;;;5031179;28;20394;-71
2022/12/14 11:54:37;;;;;;;23.95;18.75;;;0.20;99.90;;;;;;5030771;28;20941;-71
2022/12/14 11:57:12;;;;;;;30.58;20.85;;;0.20;99.90;;;;;;5025529;28;20403;-73
2022/12/14 11:59:52;;;;;;;25.30;18.80;;;0.20;99.90;;;;;;5027773;28;20773;-72
2022/12/14 12:02:35;;;;;;;24.92;19.55;;;0.20;99.90;;;;;;5027781;28;20410;-72
2022/12/14 12:05:08;;;;;;;26.77;20.77;;;0.10;99.90;;;;;;5029698;28;20407;-72
2022/12/14 12:07:41;;;;;;;30.02;23.00;;;0.10;99.90;;;;;;5027681;28;20379;-72
2022/12/14 12:10:13;;;;;;;27.73;21.77;;;0.10;99.90;;;;;;5029534;28;20404;-71
2022/12/14 12:12:48;;;;;;;30.17;22.93;;;0.10;99.90;;;;;;5029489;28;20395;-70
2022/12/14 12:15:21;;;;;;;29.27;23.20;;;0.20;99.90;;;;;;5029883;28;20429;-70
2022/12/14 12:17:53;;;;;;;34.37;24.73;;;0.10;99.90;;;;;;5011669;28;20423;-70
2022/12/14 12:20:22;;;;;;;30.35;22.50;;;0.10;99.90;;;;;;5013042;28;20402;-69
2022/12/14 12:22:50;;;;;;;31.00;24.40;;;0.10;99.90;;;;;;5012216;28;20403;-70
2022/12/14 12:25:18;;;;;;;28.50;21.30;;;0.30;99.90;;;;;;5030389;28;20410;-70
2022/12/14 12:27:48;;;;;;;24.30;20.10;;;0.30;99.90;;;;;;5030528;28;20858;-71
2022/12/14 12:30:23;;;;;;;24.75;19.55;;;0.30;99.90;;;;;;5030697;28;20833;-71
2022/12/14 12:32:53;;;;;;;27.95;21.45;;;0.30;99.90;;;;;;5029866;28;20407;-69
2022/12/14 12:35:39;;;;;;;30.73;22.55;;;0.40;99.90;;;;;;5030331;28;20394;-69
2022/12/14 12:38:20;;;;;;;31.50;23.55;;;0.30;99.90;;;;;;5030511;28;20486;-70
2022/12/14 12:41:27;;;;;;;28.17;21.02;;;0.30;99.90;;;;;;5012151;28;20461;-70
2022/12/14 12:43:56;;;;;;;29.23;20.20;;;0.40;99.90;;;;;;5007652;28;20555;-69
2022/12/14 12:46:31;;;;;;;29.38;21.92;;;0.20;99.90;;;;;;5022357;28;20920;-70
2022/12/14 12:49:11;;;;;;;27.40;21.45;;;0.20;99.90;;;;;;5019892;28;21683;-70
2022/12/14 12:51:55;;;;;;;28.25;22.35;;;0.20;99.90;;;;;;5021540;28;20828;-70
2022/12/14 12:54:26;;;;;;;30.40;23.13;;;0.20;99.90;;;;;;5022265;28;20820;-70
2022/12/14 12:56:55;;;;;;;30.83;21.92;;;0.20;99.90;;;;;;5016923;28;20465;-70
2022/12/14 12:59:32;;;;;;;28.83;21.27;;;0.20;99.90;;;;;;5018624;28;20412;-70
2022/12/14 13:02:13;;;;;;;31.98;20.65;;;0.20;99.90;;;;;;5016169;28;20886;-72
2022/12/14 13:04:40;;;;;;;29.52;21.95;;;0.20;99.90;;;;;;5026715;28;20773;-71
2022/12/14 13:07:19;;;;;;;24.92;20.30;;;0.30;99.90;;;;;;5033038;28;20479;-72
2022/12/14 13:09:59;;;;;;;27.60;20.30;;;0.40;99.90;;;;;;5033832;28;20394;-71